Dobrodošli na spletni strani vremenske postaje Senovo. Vse informacije so informativnega značaja, saj vremenska postaja ni del državne mreže meteoroloških postaj. OBVESTILO: Letni količini padavin navedeni na spletni strani je potrebno prišteti 98,1 mm, zaradi izgube podatkov.


Dež Od: 15-12-2017 00:00 Do: 23:59 Opozorilo za: Dež Stopnja: Rumena info button
Veter Od: 15-12-2017 00:00 Do: 17:59 Opozorilo za: Veter Stopnja: Rumena info button

Pogled proti Armezu več informacij Pogled proti Armezu


Lisca več informacij Lisca


Radar strel več informacij blitzortung!


opozorilo za Dež več informacij rain snow radar


Obiščite še:

Template documentation
and downloads

And another site



Weather Underground, zgodovina - Tekstovno

Dnevni povzetek za Avgust 11, 2017 Enote:  Angleško    Metrično   Obe
« Predhodni Dan
Naslednji Dan »
Dnevni Tedenski Mesečni Letni Po meri
  Višja: Nižja: Povprečje:
Temperatura: 87.1 °F 58.5 °F 72 °F
Točka rosišča: 70.7 °F 52.3 °F 62.6 °F
Vlažnost: 96 % 39 % 76 %
Hitrost vetra: 6.3 mph 0 mph 1.7 mph
Sunki vetra: 14.5 mph - -
Veter:- - SW
Zračni tlak: 29.9 in 29.9 in -
Padavine: 0.02 in    
Historical Graphs
 
 
Tabelarni podarki za Avgust 11, 2017
Čas Temperatura Točka rosišča Zračni tlak Veter Hitrost vetra Sunki vetra Vlažnost Intenziteta padavin (urna)
00:01 66.9 °F 65.1 °F 29.9 in ESE 1 mph 2.9 mph 94 % 0 in
00:06 66.9 °F 65.1 °F 29.9 in ENE 0.4 mph 2.9 mph 94 % 0 in
00:11 66.9 °F 65.1 °F 29.9 in SW 1.4 mph 3.6 mph 94 % 0 in
00:16 66.7 °F 64.9 °F 29.9 in SW 2.6 mph 3.6 mph 94 % 0 in
00:21 66.7 °F 64.9 °F 29.9 in WSW 2 mph 3.4 mph 94 % 0 in
00:26 66.6 °F 64.8 °F 29.9 in WNW 0.9 mph 3.4 mph 94 % 0 in
00:31 66.6 °F 64.8 °F 29.9 in West 0.4 mph 2.9 mph 94 % 0 in
00:36 66.4 °F 64.6 °F 29.9 in NNE 0.5 mph 2.5 mph 94 % 0 in
00:41 66.4 °F 64.6 °F 29.9 in ENE 0.6 mph 2.9 mph 94 % 0 in
00:46 66.6 °F 64.8 °F 29.9 in SSW 1.2 mph 3.8 mph 94 % 0 in
00:51 66.6 °F 64.8 °F 29.9 in WSW 2.4 mph 5.4 mph 94 % 0 in
00:56 66.6 °F 64.8 °F 29.9 in West 1.9 mph 5.4 mph 94 % 0 in
01:01 66.6 °F 64.8 °F 29.9 in NW 0.5 mph 3.1 mph 94 % 0 in
01:06 66.7 °F 64.9 °F 29.9 in ESE 1.4 mph 5.8 mph 94 % 0 in
01:11 66.6 °F 64.8 °F 29.9 in SSW 3.1 mph 10.5 mph 94 % 0 in
01:16 66.6 °F 65.1 °F 29.9 in WSW 4.1 mph 10.5 mph 95 % 0 in
01:21 66.6 °F 65.1 °F 29.9 in WSW 3.2 mph 10.5 mph 95 % 0 in
01:26 66.6 °F 65.1 °F 29.9 in WSW 2.2 mph 4.3 mph 95 % 0 in
01:31 66.6 °F 65.1 °F 29.9 in WSW 2.2 mph 4.3 mph 95 % 0 in
01:36 66.6 °F 65.1 °F 29.9 in South 0.7 mph 3.6 mph 95 % 0 in
01:41 66.4 °F 64.9 °F 29.9 in WNW 0.8 mph 3.4 mph 95 % 0 in
01:46 66.4 °F 64.9 °F 29.9 in WSW 1.7 mph 3.6 mph 95 % 0 in
01:51 66.2 °F 64.4 °F 29.9 in South 1.4 mph 3.6 mph 94 % 0 in
01:56 66.2 °F 64.4 °F 29.9 in SW 0.8 mph 2.7 mph 94 % 0 in
02:01 66 °F 64.6 °F 29.9 in North 0.9 mph 2.5 mph 95 % 0 in
02:06 65.8 °F 64.4 °F 29.9 in NNE 0.5 mph 2.2 mph 95 % 0 in
02:11 65.8 °F 64.4 °F 29.9 in Calm   2.5 mph 95 % 0 in
02:16 65.8 °F 64.4 °F 29.9 in SW 1.3 mph 3.8 mph 95 % 0 in
02:21 65.8 °F 64.4 °F 29.9 in SSW 1.8 mph 3.8 mph 95 % 0 in
02:26 65.7 °F 64.2 °F 29.9 in WNW 1 mph 2.9 mph 95 % 0 in
02:31 65.7 °F 64.2 °F 29.9 in NW 0.7 mph 2.9 mph 95 % 0 in
02:36 65.5 °F 64 °F 29.9 in NW 0.4 mph 2.7 mph 95 % 0 in
02:41 65.5 °F 64 °F 29.9 in NE 0.1 mph 1.6 mph 95 % 0 in
02:46 65.5 °F 64 °F 29.9 in Calm     95 % 0 in
02:51 65.5 °F 64 °F 29.9 in Calm     95 % 0 in
02:56 65.3 °F 63.9 °F 29.9 in Calm     95 % 0 in
03:01 65.3 °F 63.9 °F 29.9 in WSW 0.8 mph 3.4 mph 95 % 0 in
03:06 65.3 °F 63.9 °F 29.9 in WSW 1.4 mph 3.4 mph 95 % 0 in
03:11 65.3 °F 63.9 °F 29.9 in WSW 1.1 mph 2.5 mph 95 % 0 in
03:16 65.3 °F 63.9 °F 29.9 in WSW 0.7 mph 2.7 mph 95 % 0 in
03:21 65.3 °F 64 °F 29.9 in WSW 0.3 mph 2.7 mph 96 % 0 in
03:26 65.3 °F 64 °F 29.9 in Calm   1.1 mph 96 % 0 in
03:31 65.3 °F 64 °F 29.9 in WSW 0.3 mph 2.2 mph 96 % 0 in
03:36 65.3 °F 64 °F 29.9 in SW 0.9 mph 2.9 mph 96 % 0 in
03:41 65.3 °F 64 °F 29.9 in SW 1.8 mph 3.8 mph 96 % 0 in
03:46 65.3 °F 64 °F 29.9 in SW 1.6 mph 3.8 mph 96 % 0 in
03:51 65.3 °F 64 °F 29.9 in SW 0.5 mph 2.7 mph 96 % 0 in
03:56 65.3 °F 64 °F 29.9 in Calm   1.1 mph 96 % 0 in
04:01 65.5 °F 64.2 °F 29.9 in Calm     96 % 0 in
04:06 65.5 °F 64.2 °F 29.9 in NNE 0.2 mph 2.9 mph 96 % 0 in
04:11 65.5 °F 64.2 °F 29.9 in NNW 0.6 mph 2.9 mph 96 % 0 in
04:16 65.3 °F 64 °F 29.9 in WNW 0.4 mph 2.2 mph 96 % 0 in
04:21 65.3 °F 64 °F 29.9 in WNW 0.1 mph 2 mph 96 % 0 in
04:26 65.3 °F 64 °F 29.9 in WSW 0.2 mph 2.2 mph 96 % 0 in
04:31 65.3 °F 64 °F 29.9 in SSW 0.2 mph 2.2 mph 96 % 0 in
04:36 65.3 °F 64 °F 29.9 in SW 0.6 mph 2.5 mph 96 % 0 in
04:41 65.3 °F 64 °F 29.9 in West 0.6 mph 2.5 mph 96 % 0 in
04:46 65.3 °F 64 °F 29.9 in NNE 0.5 mph 2.2 mph 96 % 0 in
04:51 65.3 °F 64 °F 29.9 in NNE 0.8 mph 2.5 mph 96 % 0 in
04:56 65.1 °F 64 °F 29.9 in NNE 1.1 mph 2.9 mph 96 % 0 in
05:01 65.1 °F 64 °F 29.9 in NNE 0.6 mph 2.9 mph 96 % 0 in
05:06 65.1 °F 64 °F 29.9 in Calm     96 % 0 in
05:11 65.1 °F 64 °F 29.9 in Calm     96 % 0 in
05:16 65.1 °F 64 °F 29.9 in SW 0.4 mph 3.1 mph 96 % 0 in
05:21 65.1 °F 64 °F 29.9 in SW 0.9 mph 3.1 mph 96 % 0 in
05:24 65.1 °F 64 °F 29.9 in SW 0.9 mph 3.1 mph 96 % 0 in
05:29 65.1 °F 64 °F 29.9 in Calm   1.1 mph 96 % 0 in
05:34 65.1 °F 64 °F 29.9 in Calm   1.6 mph 96 % 0 in
05:39 65.1 °F 64 °F 29.9 in South 0.1 mph 1.6 mph 96 % 0 in
05:44 65.1 °F 64 °F 29.9 in South 0.1 mph 1.3 mph 96 % 0 in
05:49 65.1 °F 64 °F 29.9 in Calm     96 % 0 in
05:54 65.1 °F 64 °F 29.9 in East 0.2 mph 2.9 mph 96 % 0 in
05:59 65.1 °F 64 °F 29.9 in East 0.5 mph 2.9 mph 96 % 0.01 in
06:04 65.1 °F 64 °F 29.9 in South 0.8 mph 2.7 mph 96 % 0.01 in
06:09 65.1 °F 64 °F 29.9 in South 1.6 mph 2.7 mph 96 % 0.01 in
06:14 65.1 °F 64 °F 29.9 in South 1.2 mph 2.7 mph 96 % 0.01 in
06:19 65.1 °F 64 °F 29.9 in NW 0.2 mph 2.5 mph 96 % 0.02 in
06:24 65.1 °F 64 °F 29.9 in WNW 0.3 mph 2.5 mph 96 % 0.02 in
06:29 65.1 °F 64 °F 29.9 in SW 1.1 mph 2.9 mph 96 % 0.02 in
06:34 65.1 °F 64 °F 29.9 in SSW 1.1 mph 2.9 mph 96 % 0.02 in
06:39 65.1 °F 64 °F 29.9 in East 0.2 mph 1.6 mph 96 % 0.02 in
06:44 65.3 °F 64 °F 29.9 in South 0.1 mph 2 mph 96 % 0.02 in
06:49 65.3 °F 64 °F 29.9 in NNW 0.6 mph 3.1 mph 96 % 0.02 in
06:54 65.3 °F 64 °F 29.9 in NNW 0.8 mph 3.1 mph 96 % 0.01 in
06:59 65.3 °F 64 °F 29.9 in NNW 0.4 mph 2.5 mph 96 % 0.01 in
07:04 65.3 °F 64 °F 29.9 in South 0.9 mph 3.8 mph 96 % 0.01 in
07:09 65.1 °F 64 °F 29.9 in SSW 1.9 mph 3.8 mph 96 % 0.01 in
07:14 65.1 °F 64 °F 29.9 in SSW 1.2 mph 3.6 mph 96 % 0.01 in
07:19 65.1 °F 64 °F 29.9 in SW 0.2 mph 1.6 mph 96 % 0 in
07:24 65.3 °F 64 °F 29.9 in SW 0.1 mph 2.2 mph 96 % 0 in
07:29 65.3 °F 64 °F 29.9 in South 0.7 mph 2.7 mph 96 % 0 in
07:34 65.3 °F 64 °F 29.9 in SSE 0.8 mph 2.7 mph 96 % 0 in
07:39 65.3 °F 64 °F 29.9 in SSE 0.3 mph 1.6 mph 96 % 0 in
07:44 65.3 °F 64 °F 29.9 in South 0.1 mph 1.6 mph 96 % 0 in
07:49 65.3 °F 64 °F 29.9 in Calm     96 % 0 in
07:54 65.5 °F 64.2 °F 29.9 in Calm   1.6 mph 96 % 0 in
07:59 65.7 °F 64.6 °F 29.9 in South 0.5 mph 2.7 mph 96 % 0 in
08:04 66 °F 64.8 °F 29.9 in South 1.6 mph 3.1 mph 96 % 0 in
08:09 66.4 °F 65.1 °F 29.9 in South 2.2 mph 4.3 mph 96 % 0 in
08:14 66.4 °F 65.1 °F 29.9 in SSW 2.8 mph 4.3 mph 96 % 0 in
08:19 66.4 °F 65.1 °F 29.9 in SSW 2.8 mph 4 mph 96 % 0 in
08:24 66.7 °F 65.7 °F 29.9 in South 2.5 mph 5.6 mph 96 % 0 in
08:29 66.7 °F 65.7 °F 29.9 in SW 2.7 mph 5.6 mph 96 % 0 in
08:34 66.7 °F 65.7 °F 29.9 in WSW 2.8 mph 5.4 mph 96 % 0 in
08:40 66.9 °F 65.7 °F 29.9 in WSW 2.3 mph 4 mph 96 % 0 in
08:44 67.1 °F 65.8 °F 29.9 in SSW 2 mph 3.8 mph 96 % 0 in
08:49 67.1 °F 65.8 °F 29.9 in South 2.3 mph 3.8 mph 96 % 0 in
08:54 67.3 °F 66 °F 29.9 in SSW 2.7 mph 4.3 mph 96 % 0 in
08:59 67.5 °F 66 °F 29.9 in SW 2.9 mph 4.5 mph 95 % 0 in
09:04 67.6 °F 66.2 °F 29.9 in WSW 2.6 mph 4.5 mph 95 % 0 in
09:09 67.6 °F 66.2 °F 29.9 in West 1.5 mph 3.4 mph 95 % 0 in
09:14 67.8 °F 66.4 °F 29.9 in NW 0.8 mph 3.1 mph 95 % 0 in
09:19 68.4 °F 66.6 °F 29.9 in West 1.2 mph 3.1 mph 94 % 0 in
09:24 69.1 °F 67.3 °F 29.9 in SW 2 mph 4.9 mph 94 % 0 in
09:29 69.4 °F 67.6 °F 29.9 in SSW 2.8 mph 4.9 mph 94 % 0 in
09:34 69.8 °F 68 °F 29.9 in SSW 3.4 mph 4.9 mph 94 % 0 in
09:39 70.5 °F 68.4 °F 29.9 in SSW 3.1 mph 4.3 mph 93 % 0 in
09:44 70.9 °F 68.7 °F 29.9 in SSW 3 mph 4.3 mph 93 % 0 in
09:49 71.2 °F 68.7 °F 29.9 in SSW 3.2 mph 4.9 mph 92 % 0 in
09:54 71.8 °F 69.1 °F 29.9 in SSW 3.3 mph 4.9 mph 91 % 0 in
09:59 72.1 °F 69.1 °F 29.9 in SW 3.3 mph 6.5 mph 90 % 0 in
10:05 72.3 °F 69.3 °F 29.9 in SW 3.2 mph 6.5 mph 90 % 0 in
10:10 72.7 °F 69.6 °F 29.9 in SSW 2.9 mph 4.7 mph 90 % 0 in
10:15 73.2 °F 69.8 °F 29.9 in SSW 3.4 mph 5.6 mph 89 % 0 in
10:20 73.2 °F 69.4 °F 29.9 in South 3.8 mph 5.6 mph 88 % 0 in
10:25 73.4 °F 69.3 °F 29.9 in SSW 3.2 mph 4.7 mph 87 % 0 in
10:30 73.6 °F 69.1 °F 29.9 in South 2.7 mph 4 mph 86 % 0 in
10:35 73.8 °F 69.3 °F 29.9 in South 2.1 mph 4 mph 86 % 0 in
10:40 73.9 °F 69.1 °F 29.9 in SSW 1.8 mph 4 mph 85 % 0 in
10:45 74.1 °F 69.1 °F 29.9 in SSW 1.9 mph 3.4 mph 84 % 0 in
10:50 74.7 °F 69.8 °F 29.9 in SSW 1.9 mph 3.4 mph 85 % 0 in
10:55 74.8 °F 69.6 °F 29.9 in South 2.3 mph 3.6 mph 84 % 0 in
11:00 75.2 °F 69.6 °F 29.9 in South 2.4 mph 3.6 mph 83 % 0 in
11:05 75.7 °F 70 °F 29.9 in SSW 2.4 mph 4 mph 82 % 0 in
11:10 76.3 °F 70 °F 29.9 in SSW 2.1 mph 4 mph 81 % 0 in
11:15 76.5 °F 70.2 °F 29.9 in SSW 2 mph 4.3 mph 81 % 0 in
11:20 77 °F 70.3 °F 29.9 in SSW 1.8 mph 4.3 mph 80 % 0 in
11:25 77 °F 70 °F 29.9 in SSE 1.1 mph 3.1 mph 79 % 0 in
11:30 77.5 °F 70.5 °F 29.9 in SSE 1.5 mph 3.6 mph 79 % 0 in
11:35 78.1 °F 70.7 °F 29.9 in South 1.8 mph 3.6 mph 78 % 0 in
11:40 78.1 °F 69.4 °F 29.9 in ESE 2 mph 3.1 mph 75 % 0 in
11:45 78.3 °F 69.3 °F 29.9 in ENE 1.9 mph 3.8 mph 74 % 0 in
11:50 78.1 °F 68.4 °F 29.9 in ENE 2 mph 3.8 mph 72 % 0 in
11:55 77.9 °F 67.6 °F 29.9 in NE 2.7 mph 4.9 mph 71 % 0 in
12:00 77.9 °F 67.6 °F 29.9 in NE 2.5 mph 4.9 mph 71 % 0 in
12:05 78.6 °F 68.7 °F 29.9 in NE 1.2 mph 3.6 mph 72 % 0 in
12:10 79.3 °F 70 °F 29.9 in SE 0.9 mph 3.1 mph 73 % 0 in
12:15 79.9 °F 70 °F 29.9 in South 1.6 mph 3.1 mph 72 % 0 in
12:20 80.4 °F 70.2 °F 29.9 in South 1.8 mph 3.6 mph 71 % 0 in
12:25 81 °F 69.8 °F 29.9 in South 1.7 mph 4.3 mph 69 % 0 in
12:30 81.7 °F 70.5 °F 29.9 in South 2.3 mph 6 mph 69 % 0 in
12:35 82 °F 70.3 °F 29.9 in SSW 3.1 mph 6 mph 68 % 0 in
12:41 82.4 °F 68.5 °F 29.9 in WSW 2.4 mph 6.3 mph 63 % 0 in
12:46 82.6 °F 69.3 °F 29.9 in WSW 2.6 mph 6.5 mph 64 % 0 in
12:51 82.8 °F 69.3 °F 29.9 in SW 3.1 mph 6.5 mph 64 % 0 in
12:56 83.1 °F 69.6 °F 29.9 in SSW 3.2 mph 6.3 mph 64 % 0 in
13:01 83.5 °F 68.5 °F 29.9 in South 3 mph 6.3 mph 61 % 0 in
13:06 83.5 °F 69.6 °F 29.9 in South 3 mph 5.6 mph 63 % 0 in
13:11 83.8 °F 69.4 °F 29.9 in SSW 3.4 mph 5.8 mph 62 % 0 in
13:16 84.4 °F 69.4 °F 29.9 in SW 3.3 mph 7.4 mph 61 % 0 in
13:21 84.6 °F 69.6 °F 29.9 in SW 3.7 mph 7.4 mph 61 % 0 in
13:26 84.7 °F 69.8 °F 29.9 in SSW 3.9 mph 6.3 mph 61 % 0 in
13:31 84.9 °F 69.4 °F 29.9 in South 3.9 mph 6 mph 60 % 0 in
13:36 84.6 °F 68.2 °F 29.9 in SW 3.6 mph 6 mph 58 % 0 in
13:41 84.7 °F 69.3 °F 29.9 in SW 2.8 mph 6 mph 60 % 0 in
13:46 84.7 °F 68.7 °F 29.9 in ESE 1.9 mph 3.8 mph 59 % 0 in
13:54 84.7 °F 69.3 °F 29.9 in SE 2.1 mph 3.4 mph 60 % 0 in
13:59 84.9 °F 68 °F 29.9 in West 3.6 mph 8.5 mph 57 % 0 in
14:04 84.7 °F 67.8 °F 29.9 in West 3.5 mph 8.5 mph 57 % 0 in
14:09 85.1 °F 69.3 °F 29.9 in WSW 3.3 mph 7.8 mph 59 % 0 in
14:11 85.3 °F 68.7 °F 29.9 in WSW 3.8 mph 11.2 mph 58 % 0 in
14:16 85.5 °F 68.5 °F 29.9 in SW 4.1 mph 11.2 mph 57 % 0 in
14:21 85.1 °F 65.5 °F 29.9 in West 3.2 mph 6.5 mph 52 % 0 in
14:26 84.9 °F 65.8 °F 29.9 in WSW 2.5 mph 5.4 mph 53 % 0 in
14:31 84.2 °F 64 °F 29.9 in SW 3.1 mph 7.6 mph 51 % 0 in
14:34 84 °F 64.6 °F 29.9 in WSW 3.5 mph 7.6 mph 52 % 0 in
14:39 83.7 °F 64.2 °F 29.9 in WSW 3 mph 5.8 mph 52 % 0 in
14:44 83.7 °F 64.8 °F 29.9 in West 3.1 mph 8.9 mph 53 % 0 in
14:49 83.7 °F 64.8 °F 29.9 in WSW 3.2 mph 8.9 mph 53 % 0 in
14:54 83.7 °F 64.2 °F 29.9 in SSW 3.3 mph 8.5 mph 52 % 0 in
14:55 83.8 °F 63.1 °F 29.9 in SSW 3.5 mph 8.5 mph 50 % 0 in
15:00 84.2 °F 63 °F 29.9 in SSW 4 mph 8.5 mph 49 % 0 in
15:05 84.4 °F 63.7 °F 29.9 in SW 3.7 mph 6.7 mph 50 % 0 in
15:10 84.9 °F 64.8 °F 29.9 in SW 2.7 mph 7.6 mph 51 % 0 in
15:15 85.6 °F 64.2 °F 29.9 in WSW 2.5 mph 7.6 mph 49 % 0 in
15:20 85.8 °F 63.9 °F 29.9 in SW 2.8 mph 5.8 mph 48 % 0 in
15:25 86.4 °F 63.9 °F 29.9 in SW 3.3 mph 6.3 mph 47 % 0 in
15:30 86.9 °F 63 °F 29.9 in SSW 4 mph 10.5 mph 45 % 0 in
15:35 86.9 °F 60.4 °F 29.9 in SW 5.1 mph 14.5 mph 41 % 0 in
15:40 86.7 °F 59.5 °F 29.9 in WSW 6.3 mph 14.5 mph 40 % 0 in
15:45 86.9 °F 59.7 °F 29.9 in WSW 5.9 mph 11.9 mph 40 % 0 in
15:50 86.9 °F 59.7 °F 29.9 in SW 5.4 mph 11 mph 40 % 0 in
15:55 86.9 °F 59 °F 29.9 in SW 5.9 mph 11 mph 39 % 0 in
16:00 87.1 °F 59.7 °F 29.9 in SW 5.2 mph 8.5 mph 40 % 0 in
16:05 86.7 °F 60.3 °F 29.9 in WSW 4.9 mph 9.6 mph 41 % 0 in
16:10 86.7 °F 61 °F 29.9 in West 4.9 mph 9.6 mph 42 % 0 in
16:15 86.5 °F 61.3 °F 29.9 in WSW 4.9 mph 9.8 mph 43 % 0 in
16:20 86.4 °F 61.9 °F 29.9 in WSW 4.2 mph 9.8 mph 44 % 0 in
16:25 86.5 °F 62.8 °F 29.9 in WSW 2.8 mph 8.5 mph 45 % 0 in
16:30 86.4 °F 62.4 °F 29.9 in WSW 2.6 mph 8.5 mph 45 % 0 in
16:40 85.8 °F 62.1 °F 29.9 in WNW 4.1 mph 10.1 mph 45 % 0 in
16:46 85.6 °F 61.9 °F 29.9 in WNW 4.2 mph 6.5 mph 45 % 0 in
16:51 85.3 °F 62.2 °F 29.9 in West 4.6 mph 8.5 mph 46 % 0 in
16:56 85.5 °F 62.2 °F 29.9 in WSW 3.5 mph 8.5 mph 46 % 0 in
17:01 85.6 °F 62.4 °F 29.9 in WSW 2.8 mph 6.7 mph 46 % 0 in
17:06 85.1 °F 61.3 °F 29.9 in West 3.1 mph 5.8 mph 45 % 0 in
17:11 84.4 °F 60.1 °F 29.9 in West 3.8 mph 7.2 mph 44 % 0 in
17:16 84.7 °F 61 °F 29.9 in WSW 4.5 mph 7.8 mph 45 % 0 in
17:21 85.3 °F 61.5 °F 29.9 in WSW 3.3 mph 7.8 mph 45 % 0 in
17:26 85.5 °F 61.2 °F 29.9 in WSW 2.5 mph 8.5 mph 44 % 0 in
17:31 84.9 °F 60.6 °F 29.9 in WSW 3.3 mph 8.5 mph 44 % 0 in
17:36 84 °F 59.2 °F 29.9 in West 3.9 mph 6 mph 43 % 0 in
17:41 83.3 °F 58.5 °F 29.9 in West 4 mph 7.8 mph 43 % 0 in
17:46 82.9 °F 58.8 °F 29.9 in West 3.6 mph 7.8 mph 44 % 0 in
17:51 82.8 °F 57.9 °F 29.9 in West 3.4 mph 8.1 mph 43 % 0 in
17:56 82.2 °F 58.1 °F 29.9 in West 3.9 mph 8.1 mph 44 % 0 in
18:01 81.7 °F 58.3 °F 29.9 in West 3 mph 5.8 mph 45 % 0 in
18:06 81.1 °F 57.2 °F 29.9 in West 1.6 mph 3.6 mph 44 % 0 in
18:11 80.6 °F 57.9 °F 29.9 in West 1.5 mph 3.6 mph 46 % 0 in
18:16 80.4 °F 58.3 °F 29.9 in SW 1.8 mph 3.6 mph 47 % 0 in
18:21 80.2 °F 57.6 °F 29.9 in SW 2.2 mph 5.6 mph 46 % 0 in
18:26 80.1 °F 56.8 °F 29.9 in WSW 3 mph 7.4 mph 45 % 0 in
18:31 79.9 °F 56.7 °F 29.9 in WSW 3.1 mph 7.4 mph 45 % 0 in
18:36 79.7 °F 56.5 °F 29.9 in West 3 mph 5.8 mph 45 % 0 in
18:41 79.5 °F 56.3 °F 29.9 in WSW 2.9 mph 5.8 mph 45 % 0 in
18:46 79.3 °F 56.1 °F 29.9 in WSW 3.4 mph 6.7 mph 45 % 0 in
18:51 79.2 °F 55.9 °F 29.9 in WSW 4.1 mph 7.8 mph 45 % 0 in
18:56 79 °F 55.2 °F 29.9 in West 4.1 mph 7.8 mph 44 % 0 in
19:01 78.6 °F 54.9 °F 29.9 in West 3 mph 7.4 mph 44 % 0 in
19:06 78.3 °F 54.7 °F 29.9 in WSW 2.9 mph 7.6 mph 44 % 0 in
19:11 77.9 °F 53.6 °F 29.9 in WSW 3.2 mph 7.6 mph 43 % 0 in
19:16 77.5 °F 53.2 °F 29.9 in WSW 2.9 mph 5.8 mph 43 % 0 in
19:21 77 °F 52.9 °F 29.9 in WSW 3.2 mph 5.6 mph 43 % 0 in
19:26 76.6 °F 53.1 °F 29.9 in WSW 2.5 mph 4.9 mph 44 % 0 in
19:31 76.1 °F 52.5 °F 29.9 in SW 1.8 mph 4.9 mph 44 % 0 in
19:36 75.7 °F 52.3 °F 29.9 in SSW 1.4 mph 4.3 mph 44 % 0 in
19:41 75 °F 52.9 °F 29.9 in SW 0.6 mph 2.5 mph 46 % 0 in
19:46 74.3 °F 53.2 °F 29.9 in WSW 0.4 mph 2.7 mph 48 % 0 in
19:51 73.9 °F 53.6 °F 29.9 in West 0.2 mph 2.7 mph 49 % 0 in
19:56 73 °F 53.2 °F 29.9 in West 0.4 mph 2.2 mph 50 % 0 in
20:01 72.3 °F 53.8 °F 29.9 in West 0.4 mph 2.2 mph 52 % 0 in
20:06 71.8 °F 53.8 °F 29.9 in NNW 0.6 mph 2.5 mph 53 % 0 in
20:11 70.9 °F 55.4 °F 29.9 in NNW 0.6 mph 2.5 mph 58 % 0 in
20:16 70.2 °F 56.1 °F 29.9 in Calm     61 % 0 in
20:21 69.8 °F 55.8 °F 29.9 in NNW 0.1 mph 2.5 mph 61 % 0 in
20:26 69.4 °F 54.9 °F 29.9 in NNW 0.4 mph 2.5 mph 60 % 0 in
20:31 68.7 °F 55.2 °F 29.9 in NNW 0.9 mph 3.1 mph 62 % 0 in
20:36 68.4 °F 55.2 °F 29.9 in NNW 1.4 mph 3.1 mph 63 % 0 in
20:41 67.8 °F 55.9 °F 29.9 in NNW 1 mph 3.1 mph 66 % 0 in
20:46 67.3 °F 55.9 °F 29.9 in Calm   0.9 mph 67 % 0 in
20:51 66.9 °F 55.9 °F 29.9 in Calm   2.5 mph 68 % 0 in
20:56 66.4 °F 55.6 °F 29.9 in NNW 0.4 mph 2.5 mph 68 % 0 in
21:01 66.2 °F 55.8 °F 29.9 in NNE 0.4 mph 1.6 mph 69 % 0 in
21:06 65.8 °F 55.4 °F 29.9 in NNE 0.1 mph 1.3 mph 69 % 0 in
21:11 65.5 °F 55.4 °F 29.9 in NNE 0.1 mph 1.3 mph 70 % 0 in
21:16 64.9 °F 55.2 °F 29.9 in Calm   2.7 mph 71 % 0 in
21:21 64.6 °F 55.2 °F 29.9 in NNW 0.2 mph 2.7 mph 72 % 0 in
21:26 64.2 °F 55.4 °F 29.9 in North 0.6 mph 2.5 mph 73 % 0 in
21:27 64.2 °F 55.4 °F 29.9 in North 0.6 mph 2.5 mph 73 % 0 in
21:32 63.9 °F 55.4 °F 29.9 in NNE 0.4 mph 2.5 mph 74 % 0 in
21:37 63.5 °F 55 °F 29.9 in NW 0.8 mph 2.7 mph 74 % 0 in
21:42 63.1 °F 55 °F 29.9 in NW 1.5 mph 2.7 mph 75 % 0 in
21:47 63 °F 54.9 °F 29.9 in NW 0.8 mph 2.7 mph 75 % 0 in
21:52 62.6 °F 54.9 °F 29.9 in Calm   1.6 mph 76 % 0 in
21:57 62.2 °F 55.2 °F 29.9 in Calm     78 % 0 in
22:02 62.1 °F 55 °F 29.9 in Calm     78 % 0 in
22:07 61.9 °F 54.9 °F 29.9 in Calm     78 % 0 in
22:12 61.5 °F 54.9 °F 29.9 in Calm     79 % 0 in
22:17 61.3 °F 54.3 °F 29.9 in NW 0.1 mph 1.6 mph 78 % 0 in
22:22 61.2 °F 54.7 °F 29.9 in NW 0.1 mph 1.6 mph 79 % 0 in
22:27 61 °F 54.9 °F 29.9 in Calm     80 % 0 in
22:32 60.8 °F 54.7 °F 29.9 in Calm     80 % 0 in
22:37 60.6 °F 54.9 °F 29.9 in Calm     81 % 0 in
22:42 60.4 °F 54.7 °F 29.9 in Calm     81 % 0 in
22:47 60.3 °F 54.3 °F 29.9 in Calm   2 mph 81 % 0 in
22:52 60.1 °F 54.1 °F 29.9 in WNW 0.3 mph 2.5 mph 81 % 0 in
22:57 59.9 °F 54.3 °F 29.9 in WNW 0.3 mph 2.5 mph 82 % 0 in
23:02 59.9 °F 54.3 °F 29.9 in Calm   1.1 mph 82 % 0 in
23:07 59.7 °F 54.1 °F 29.9 in Calm   1.1 mph 82 % 0 in
23:13 59.7 °F 54.5 °F 29.9 in Calm     83 % 0 in
23:18 59.5 °F 54.3 °F 29.9 in Calm     83 % 0 in
23:23 59.4 °F 54.1 °F 29.9 in Calm     83 % 0 in
23:28 59.4 °F 54.1 °F 29.9 in WNW 0.1 mph 2.7 mph 83 % 0 in
23:33 59.2 °F 54 °F 29.9 in WNW 0.1 mph 2.7 mph 83 % 0 in
23:38 59 °F 53.8 °F 29.9 in Calm   0.9 mph 83 % 0 in
23:43 58.8 °F 54 °F 29.9 in Calm     84 % 0 in
23:48 58.8 °F 54 °F 29.9 in Calm     84 % 0 in
23:53 58.6 °F 53.8 °F 29.9 in Calm     84 % 0 in
23:58 58.5 °F 53.6 °F 29.9 in Calm     84 % 0 in
Vremenska postaja Senovo
Podatki zbrani iz Weather Underground - 3 mb

Script developed by  Jim McMurry - jmcmurry@mwt.net Adapted for the template by  Wim van der Kuil - Leuven-Template.eu

Vremenski podatki so objavljeni na:

WeatherCloud

Weather Underground

AWEKAS

HAMweather, WeatherForYou, PWS Weather

MapView

Geostik

Slovenia weather network

Oprema, ki se uporablja:

Vremenski program
Cumulus

Cumulus